createdAt,value
2024-01-05T00:01:08.196Z,99467.81
2024-01-05T00:04:10.686Z,99472.16
2024-01-05T00:07:13.197Z,99474.31
2024-01-05T00:10:15.555Z,99480.28
2024-01-05T00:13:17.889Z,99492.31
2024-01-05T00:16:21.882Z,99474.19
2024-01-05T00:19:24.424Z,99477.06
2024-01-05T00:22:27.338Z,99473.50
2024-01-05T00:25:29.687Z,99485.16
2024-01-05T00:28:32.102Z,99498.75
2024-01-05T00:31:34.505Z,99508.41
2024-01-05T00:34:37.503Z,99494.78
2024-01-05T00:37:40.003Z,99494.19
2024-01-05T00:40:42.444Z,99516.78
2024-01-05T00:43:44.788Z,99532.53
2024-01-05T00:46:47.218Z,99534.72
2024-01-05T00:49:49.803Z,99522.34
2024-01-05T00:52:52.471Z,99505.97
2024-01-05T00:55:54.802Z,99530.84
2024-01-05T00:58:57.462Z,99532.31
2024-01-05T01:01:59.791Z,99541.59
2024-01-05T01:05:02.399Z,99544.22
2024-01-05T01:08:05.133Z,99539.72
2024-01-05T01:11:14.396Z,99510.66
2024-01-05T01:14:16.898Z,99543.16
2024-01-05T01:17:19.721Z,99519.75
2024-01-05T01:20:22.109Z,99555.72
2024-01-05T01:23:24.474Z,99540.13
2024-01-05T01:26:26.874Z,99559.88
2024-01-05T01:29:29.210Z,99520.69
2024-01-05T01:32:31.552Z,99547.16
2024-01-05T01:35:34.018Z,99550.13
2024-01-05T01:38:36.455Z,99571.16
2024-01-05T01:41:38.965Z,99586.34
2024-01-05T01:44:41.352Z,99571.28
2024-01-05T01:47:45.488Z,99565.69
2024-01-05T01:50:49.792Z,99596.09
2024-01-05T01:53:53.526Z,99566.53
2024-01-05T01:56:56.699Z,99596.66
2024-01-05T01:59:59.205Z,99580.41
2024-01-05T02:03:04.745Z,99575.91
2024-01-05T02:06:07.333Z,99586.56
2024-01-05T02:09:09.760Z,99590.09
2024-01-05T02:12:12.315Z,99614.00
2024-01-05T02:15:14.716Z,99606.34
2024-01-05T02:18:17.375Z,99636.94
2024-01-05T02:21:24.253Z,99636.63
2024-01-05T02:24:26.855Z,99621.25
2024-01-05T02:27:29.404Z,99629.66
2024-01-05T02:30:32.022Z,99647.72
2024-01-05T02:33:34.739Z,99611.97
2024-01-05T02:36:37.204Z,99624.78
2024-01-05T02:39:39.658Z,99599.50
2024-01-05T02:42:42.067Z,99641.44
2024-01-05T02:45:44.736Z,99652.28
2024-01-05T02:48:47.324Z,99660.94
2024-01-05T02:51:49.806Z,99648.81
2024-01-05T02:54:52.134Z,99652.75
2024-01-05T02:57:54.488Z,99653.50
2024-01-05T03:00:56.889Z,99661.16
2024-01-05T03:04:02.087Z,99661.81
2024-01-05T03:07:04.679Z,99643.66
2024-01-05T03:10:07.788Z,99673.34
2024-01-05T03:13:10.732Z,99665.56
2024-01-05T03:16:13.176Z,99650.94
2024-01-05T03:19:15.555Z,99679.69
2024-01-05T03:22:17.924Z,99670.44
2024-01-05T03:25:20.266Z,99694.53
2024-01-05T03:28:22.663Z,99701.31
2024-01-05T03:31:27.158Z,99705.06
2024-01-05T03:34:29.694Z,99682.38
2024-01-05T03:37:32.126Z,99694.25
2024-01-05T03:40:34.481Z,99689.22
2024-01-05T03:43:36.978Z,99693.72
2024-01-05T03:46:39.334Z,99703.19
2024-01-05T03:49:41.781Z,99687.66
2024-01-05T03:52:44.167Z,99710.59
2024-01-05T03:55:46.580Z,99687.94
2024-01-05T03:58:49.014Z,99692.25
2024-01-05T04:01:51.452Z,99700.63
2024-01-05T04:04:53.906Z,99689.78
2024-01-05T04:07:56.350Z,99692.56
2024-01-05T04:10:58.684Z,99694.69
2024-01-05T04:14:01.016Z,99721.81
2024-01-05T04:17:03.451Z,99718.69
2024-01-05T04:20:06.140Z,99715.91
2024-01-05T04:23:08.585Z,99692.97
2024-01-05T04:26:10.937Z,99720.63
2024-01-05T04:29:13.390Z,99689.44
2024-01-05T04:32:16.045Z,99692.94
2024-01-05T04:35:18.463Z,99694.97
2024-01-05T04:38:20.847Z,99706.03
2024-01-05T04:41:23.679Z,99659.63
2024-01-05T04:44:26.596Z,99724.66
2024-01-05T04:47:29.021Z,99714.41
2024-01-05T04:50:31.692Z,99745.44
2024-01-05T04:53:34.209Z,99761.84
2024-01-05T04:56:36.570Z,99766.88
2024-01-05T04:59:38.921Z,99754.53
2024-01-05T05:02:41.318Z,99741.84
2024-01-05T05:05:43.799Z,99752.75
2024-01-05T05:08:46.389Z,99753.06
2024-01-05T05:11:48.754Z,99748.44
2024-01-05T05:14:51.149Z,99725.06
2024-01-05T05:17:55.117Z,99750.53
2024-01-05T05:20:57.767Z,99747.09
2024-01-05T05:24:00.316Z,99747.47
2024-01-05T05:27:02.745Z,99732.44
2024-01-05T05:30:07.648Z,99728.66
2024-01-05T05:33:10.465Z,99724.47
2024-01-05T05:36:12.991Z,99750.31
2024-01-05T05:39:16.127Z,99759.59
2024-01-05T05:42:18.538Z,99713.50
2024-01-05T05:45:20.943Z,99733.88
2024-01-05T05:48:24.170Z,99734.38
2024-01-05T05:51:26.615Z,99768.34
2024-01-05T05:54:29.027Z,99798.59
2024-01-05T05:57:32.928Z,99815.88
2024-01-05T06:00:36.909Z,99873.72
2024-01-05T06:03:39.448Z,99865.88
2024-01-05T06:06:42.111Z,99846.56
2024-01-05T06:09:44.619Z,99871.88
2024-01-05T06:12:47.734Z,99834.91
2024-01-05T06:15:50.143Z,99841.97
2024-01-05T06:18:52.765Z,99874.44
2024-01-05T06:21:55.197Z,99870.88
2024-01-05T06:24:57.535Z,99861.06
2024-01-05T06:28:00.014Z,99853.22
2024-01-05T06:31:02.477Z,99883.53
2024-01-05T06:34:04.981Z,99884.38
2024-01-05T06:37:07.394Z,99890.41
2024-01-05T06:40:10.225Z,99879.03
2024-01-05T06:43:12.556Z,99849.16
2024-01-05T06:46:15.024Z,99871.31
2024-01-05T06:49:18.085Z,99826.34
2024-01-05T06:52:20.533Z,99856.81
2024-01-05T06:55:23.004Z,99861.34
2024-01-05T06:58:25.565Z,99860.72
2024-01-05T07:01:28.154Z,99863.50
2024-01-05T07:04:30.656Z,99881.25
2024-01-05T07:07:33.132Z,99898.78
2024-01-05T07:10:35.673Z,99918.31
2024-01-05T07:13:38.051Z,99896.41
2024-01-05T07:16:40.404Z,99903.75
2024-01-05T07:19:42.932Z,99915.28
2024-01-05T07:22:45.308Z,99892.91
2024-01-05T07:25:47.672Z,99885.19
2024-01-05T07:28:50.215Z,99898.13
2024-01-05T07:31:52.588Z,99898.59
2024-01-05T07:34:54.985Z,99903.06
2024-01-05T07:37:57.396Z,99892.25
2024-01-05T07:40:59.831Z,99921.88
2024-01-05T07:44:02.201Z,99925.81
2024-01-05T07:47:05.489Z,99926.66
2024-01-05T07:50:08.027Z,99930.47
2024-01-05T07:53:10.468Z,99932.94
2024-01-05T07:56:12.871Z,99926.69
2024-01-05T07:59:16.847Z,99935.78
2024-01-05T08:02:19.640Z,99946.41
2024-01-05T08:05:22.248Z,99938.16
2024-01-05T08:08:24.672Z,99939.28
2024-01-05T08:11:27.537Z,99940.91
2024-01-05T08:14:29.950Z,99952.72
2024-01-05T08:17:32.321Z,99952.69
2024-01-05T08:20:35.306Z,99939.22
2024-01-05T08:23:37.960Z,99953.75
2024-01-05T08:26:40.394Z,99979.19
2024-01-05T08:29:42.846Z,99958.75
2024-01-05T08:32:45.392Z,99992.47
2024-01-05T08:35:47.858Z,99969.91
2024-01-05T08:38:50.343Z,99973.53
2024-01-05T08:41:52.827Z,99981.81
2024-01-05T08:44:55.190Z,99972.78
2024-01-05T08:47:57.741Z,99973.13
2024-01-05T08:51:00.454Z,99981.31
2024-01-05T08:54:04.698Z,99992.16
2024-01-05T08:57:10.764Z,99989.44
2024-01-05T09:00:13.386Z,99975.25
2024-01-05T09:03:16.010Z,99989.63
2024-01-05T09:06:18.550Z,99985.44
2024-01-05T09:09:20.960Z,99992.81
2024-01-05T09:12:23.436Z,99966.38
2024-01-05T09:15:26.139Z,99990.78
2024-01-05T09:18:34.988Z,99978.88
2024-01-05T09:21:37.686Z,99985.66
2024-01-05T09:24:40.399Z,99979.41
2024-01-05T09:27:42.882Z,99981.78
2024-01-05T09:30:45.644Z,99970.63
2024-01-05T09:33:51.109Z,99971.59
2024-01-05T09:36:55.031Z,99985.81
2024-01-05T09:39:57.569Z,99988.06
2024-01-05T09:43:03.668Z,99985.44
2024-01-05T09:46:06.315Z,99969.41
2024-01-05T09:49:10.258Z,99978.63
2024-01-05T09:52:16.901Z,99977.91
2024-01-05T09:55:19.350Z,99970.88
2024-01-05T09:58:22.464Z,99967.63
2024-01-05T10:01:28.378Z,99970.50
2024-01-05T10:04:31.658Z,99944.84
2024-01-05T10:07:41.973Z,99943.41
2024-01-05T10:10:49.737Z,99959.31
2024-01-05T10:13:56.145Z,99943.03
2024-01-05T10:17:11.635Z,99957.97
2024-01-05T10:20:18.659Z,99955.19
2024-01-05T10:23:21.520Z,99953.34
2024-01-05T10:26:23.977Z,99932.66
2024-01-05T10:29:26.685Z,99951.66
2024-01-05T10:32:30.561Z,99958.31
2024-01-05T10:35:35.399Z,99954.00
2024-01-05T10:38:37.912Z,99949.00
2024-01-05T10:41:40.312Z,99920.69
2024-01-05T10:44:46.411Z,99933.16
2024-01-05T10:47:52.223Z,99939.44
2024-01-05T10:50:57.694Z,99914.75
2024-01-05T10:54:00.872Z,99926.03
2024-01-05T10:57:05.590Z,99931.50
2024-01-05T11:00:08.830Z,99926.19
2024-01-05T11:03:15.572Z,99934.88
2024-01-05T11:06:18.953Z,99909.88
2024-01-05T11:09:54.405Z,99933.59
2024-01-05T11:13:15.223Z,99933.75
2024-01-05T11:16:26.446Z,99934.59
2024-01-05T11:19:52.911Z,99934.06
2024-01-05T11:22:57.839Z,99915.38
2024-01-05T11:26:00.336Z,99907.63
2024-01-05T11:29:04.025Z,99882.91
2024-01-05T11:32:06.714Z,99894.31
2024-01-05T11:35:18.472Z,99914.41
2024-01-05T11:38:26.660Z,99880.50
2024-01-05T11:41:33.032Z,99880.28
2024-01-05T11:44:36.879Z,99893.28
2024-01-05T11:47:39.902Z,99897.56
2024-01-05T11:50:42.298Z,99891.25
2024-01-05T11:53:45.834Z,99869.38
2024-01-05T11:56:48.166Z,99878.94
2024-01-05T11:59:56.483Z,99903.97
2024-01-05T12:03:05.865Z,99902.53
2024-01-05T12:06:13.501Z,99886.22
2024-01-05T12:09:16.284Z,99877.28
2024-01-05T12:12:19.316Z,99892.28
2024-01-05T12:15:22.541Z,99881.00
2024-01-05T12:18:34.879Z,99893.19
2024-01-05T12:21:40.856Z,99888.81
2024-01-05T12:24:45.987Z,99871.50
2024-01-05T12:27:49.138Z,99883.44
2024-01-05T12:30:52.182Z,99854.59
2024-01-05T12:33:55.038Z,99863.84
2024-01-05T12:37:08.718Z,99856.06
2024-01-05T12:40:12.808Z,99882.44
2024-01-05T12:43:17.702Z,99884.06
2024-01-05T12:46:21.272Z,99859.09
2024-01-05T12:49:26.386Z,99862.66
2024-01-05T12:52:38.809Z,99877.78
2024-01-05T12:55:41.317Z,99884.38
2024-01-05T12:58:45.722Z,99849.84
2024-01-05T13:01:48.576Z,99879.41
2024-01-05T13:04:51.287Z,99855.53
2024-01-05T13:07:54.911Z,99878.16
2024-01-05T13:10:57.264Z,99856.50
2024-01-05T13:13:59.654Z,99878.28
2024-01-05T13:17:02.199Z,99854.81
2024-01-05T13:20:06.032Z,99868.78
2024-01-05T13:23:09.054Z,99874.81
2024-01-05T13:26:11.619Z,99848.50
2024-01-05T13:29:14.002Z,99864.59
2024-01-05T13:32:16.613Z,99850.19
2024-01-05T13:35:19.122Z,99860.69
2024-01-05T13:38:23.390Z,99876.03
2024-01-05T13:41:25.850Z,99878.06
2024-01-05T13:44:28.237Z,99864.69
2024-01-05T13:47:30.677Z,99894.13
2024-01-05T13:50:33.164Z,99900.03
2024-01-05T13:53:35.579Z,99892.78
2024-01-05T13:56:38.078Z,99890.63
2024-01-05T13:59:40.424Z,99877.38
2024-01-05T14:02:43.416Z,99876.31
2024-01-05T14:05:45.915Z,99885.97
2024-01-05T14:08:48.341Z,99844.59
2024-01-05T14:11:51.479Z,99884.59
2024-01-05T14:14:53.823Z,99872.00
2024-01-05T14:17:56.687Z,99887.06
2024-01-05T14:20:59.927Z,99873.47
2024-01-05T14:24:03.093Z,99849.16
2024-01-05T14:27:05.497Z,99865.38
2024-01-05T14:30:09.620Z,99878.34
2024-01-05T14:33:12.604Z,99852.56
2024-01-05T14:36:15.392Z,99873.81
2024-01-05T14:39:18.061Z,99880.81
2024-01-05T14:42:20.480Z,99849.53
2024-01-05T14:45:25.124Z,99852.91
2024-01-05T14:48:29.542Z,99861.91
2024-01-05T14:51:32.606Z,99870.72
2024-01-05T14:54:35.109Z,99851.09
2024-01-05T14:57:37.642Z,99854.53
2024-01-05T15:00:40.104Z,99867.06
2024-01-05T15:03:42.824Z,99849.47
2024-01-05T15:06:45.361Z,99853.31
2024-01-05T15:09:48.034Z,99879.81
2024-01-05T15:12:53.805Z,99866.41
2024-01-05T15:15:58.962Z,99882.31
2024-01-05T15:19:04.073Z,99860.31
2024-01-05T15:22:07.979Z,99864.19
2024-01-05T15:25:16.129Z,99875.81
2024-01-05T15:28:18.812Z,99890.47
2024-01-05T15:31:22.211Z,99885.44
2024-01-05T15:34:24.885Z,99858.47
2024-01-05T15:37:27.339Z,99863.97
2024-01-05T15:40:31.051Z,99882.31
2024-01-05T15:43:37.145Z,99863.56
2024-01-05T15:46:39.553Z,99889.00
2024-01-05T15:49:42.168Z,99871.97
2024-01-05T15:52:44.561Z,99879.22
2024-01-05T15:55:51.842Z,99871.31
2024-01-05T15:59:00.547Z,99877.63
2024-01-05T16:02:04.597Z,99882.72
2024-01-05T16:05:07.389Z,99877.22
2024-01-05T16:08:10.039Z,99888.53
2024-01-05T16:11:12.441Z,99878.63
2024-01-05T16:14:15.303Z,99857.88
2024-01-05T16:17:17.737Z,99857.88
2024-01-05T16:20:20.438Z,99857.59
2024-01-05T16:23:22.851Z,99888.16
2024-01-05T16:26:26.423Z,99870.38
2024-01-05T16:29:28.787Z,99869.91
2024-01-05T16:32:31.267Z,99885.06
2024-01-05T16:35:33.659Z,99886.91
2024-01-05T16:38:37.434Z,99875.25
2024-01-05T16:41:39.789Z,99877.72
2024-01-05T16:44:43.661Z,99829.03
2024-01-05T16:47:46.184Z,99849.22
2024-01-05T16:50:48.908Z,99868.34
2024-01-05T16:53:52.157Z,99884.50
2024-01-05T16:56:55.166Z,99852.69
2024-01-05T16:59:57.648Z,99876.81
2024-01-05T17:03:04.315Z,99876.00
2024-01-05T17:06:12.974Z,99876.19
2024-01-05T17:09:21.894Z,99855.81
2024-01-05T17:12:24.434Z,99858.81
2024-01-05T17:15:26.895Z,99851.94
2024-01-05T17:18:29.400Z,99880.13
2024-01-05T17:21:31.908Z,99872.44
2024-01-05T17:24:35.619Z,99888.59
2024-01-05T17:27:38.098Z,99872.06
2024-01-05T17:30:40.585Z,99852.47
2024-01-05T17:33:44.097Z,99863.44
2024-01-05T17:36:46.572Z,99860.03
2024-01-05T17:39:49.092Z,99865.81
2024-01-05T17:42:51.626Z,99877.59
2024-01-05T17:45:54.279Z,99907.19
2024-01-05T17:48:56.865Z,99880.19
2024-01-05T17:51:59.451Z,99906.63
2024-01-05T17:55:02.078Z,99906.25
2024-01-05T17:58:04.611Z,99912.94
2024-01-05T18:01:10.694Z,99912.53
2024-01-05T18:04:16.003Z,99897.22
2024-01-05T18:07:18.647Z,99885.28
2024-01-05T18:10:21.129Z,99915.19
2024-01-05T18:13:24.396Z,99896.56
2024-01-05T18:16:28.671Z,99908.22
2024-01-05T18:19:31.245Z,99906.03
2024-01-05T18:22:33.684Z,99895.63
2024-01-05T18:25:37.694Z,99891.31
2024-01-05T18:28:40.078Z,99918.94
2024-01-05T18:31:42.537Z,99894.16
2024-01-05T18:34:46.568Z,99901.91
2024-01-05T18:37:49.203Z,99893.88
2024-01-05T18:40:51.605Z,99904.31
2024-01-05T18:43:54.424Z,99895.91
2024-01-05T18:46:56.810Z,99887.31
2024-01-05T18:49:59.869Z,99897.53
2024-01-05T18:53:02.272Z,99920.28
2024-01-05T18:56:07.681Z,99921.88
2024-01-05T18:59:10.204Z,99906.22
2024-01-05T19:02:12.921Z,99907.06
2024-01-05T19:05:15.579Z,99903.19
2024-01-05T19:08:18.625Z,99908.22
2024-01-05T19:11:21.269Z,99897.31
2024-01-05T19:14:25.128Z,99870.06
2024-01-05T19:17:28.083Z,99891.88
2024-01-05T19:20:32.850Z,99871.53
2024-01-05T19:23:35.410Z,99871.06
2024-01-05T19:26:37.908Z,99869.19
2024-01-05T19:29:43.664Z,99877.00
2024-01-05T19:32:46.797Z,99901.06
2024-01-05T19:35:49.637Z,99875.91
2024-01-05T19:38:52.074Z,99883.59
2024-01-05T19:41:54.480Z,99881.13
2024-01-05T19:44:58.121Z,99889.78
2024-01-05T19:48:00.563Z,99891.41
2024-01-05T19:51:12.519Z,99898.19
2024-01-05T19:54:16.292Z,99895.72
2024-01-05T19:57:18.874Z,99862.84
2024-01-05T20:00:22.389Z,99902.06
2024-01-05T20:03:25.298Z,99876.81
2024-01-05T20:06:27.843Z,99899.25
2024-01-05T20:09:30.277Z,99890.72
2024-01-05T20:12:32.734Z,99901.84
2024-01-05T20:15:35.373Z,99843.63
2024-01-05T20:18:37.914Z,99862.84
2024-01-05T20:21:40.428Z,99877.13
2024-01-05T20:24:42.875Z,99848.59
2024-01-05T20:27:45.456Z,99866.25
2024-01-05T20:30:48.266Z,99871.19
2024-01-05T20:33:52.511Z,99847.13
2024-01-05T20:36:55.505Z,99876.91
2024-01-05T20:39:58.506Z,99853.31
2024-01-05T20:43:00.904Z,99825.66
2024-01-05T20:46:03.442Z,99868.97
2024-01-05T20:49:05.925Z,99853.75
2024-01-05T20:52:09.807Z,99851.31
2024-01-05T20:55:12.214Z,99843.50
2024-01-05T20:58:14.681Z,99863.69
2024-01-05T21:01:18.830Z,99860.78
2024-01-05T21:04:23.041Z,99846.16
2024-01-05T21:07:25.828Z,99840.63
2024-01-05T21:10:28.352Z,99829.63
2024-01-05T21:13:30.812Z,99827.84
2024-01-05T21:16:33.538Z,99846.78
2024-01-05T21:19:40.554Z,99849.38
2024-01-05T21:22:43.173Z,99842.88
2024-01-05T21:25:46.698Z,99847.19
2024-01-05T21:28:49.032Z,99842.88
2024-01-05T21:31:52.113Z,99843.13
2024-01-05T21:34:57.752Z,99814.50
2024-01-05T21:38:01.407Z,99832.88
2024-01-05T21:41:04.415Z,99841.97
2024-01-05T21:44:07.650Z,99829.63
2024-01-05T21:47:10.365Z,99823.09
2024-01-05T21:50:13.347Z,99825.13
2024-01-05T21:53:15.795Z,99814.47
2024-01-05T21:56:18.930Z,99787.38
2024-01-05T21:59:21.725Z,99804.38
2024-01-05T22:02:24.197Z,99797.75
2024-01-05T22:05:26.541Z,99834.09
2024-01-05T22:08:29.122Z,99792.78
2024-01-05T22:11:32.379Z,99773.25
2024-01-05T22:14:34.794Z,99786.09
2024-01-05T22:17:37.334Z,99772.63
2024-01-05T22:20:41.078Z,99811.59
2024-01-05T22:23:44.453Z,99796.44
2024-01-05T22:26:47.305Z,99794.00
2024-01-05T22:29:49.873Z,99826.69
2024-01-05T22:32:52.314Z,99794.19
2024-01-05T22:36:01.342Z,99796.78
2024-01-05T22:39:06.347Z,99798.19
2024-01-05T22:42:09.010Z,99776.22
2024-01-05T22:45:11.679Z,99758.22
2024-01-05T22:48:14.246Z,99747.84
2024-01-05T22:51:29.371Z,99744.72
2024-01-05T22:54:32.049Z,99765.78
2024-01-05T22:57:34.506Z,99742.88
2024-01-05T23:00:36.934Z,99750.78
2024-01-05T23:03:39.466Z,99748.06
2024-01-05T23:06:42.491Z,99742.28
2024-01-05T23:09:45.249Z,99769.81
2024-01-05T23:12:48.660Z,99768.13
2024-01-05T23:15:51.480Z,99781.16
2024-01-05T23:18:54.213Z,99752.41
2024-01-05T23:21:56.860Z,99777.50
2024-01-05T23:24:59.552Z,99760.06
2024-01-05T23:28:02.151Z,99754.28
2024-01-05T23:31:05.662Z,99750.22
2024-01-05T23:34:16.237Z,99748.34
2024-01-05T23:37:20.232Z,99748.28
2024-01-05T23:40:22.901Z,99756.56
2024-01-05T23:43:25.551Z,99746.19
2024-01-05T23:46:28.207Z,99722.81
2024-01-05T23:49:30.944Z,99737.00
2024-01-05T23:52:33.807Z,99748.00
2024-01-05T23:55:36.423Z,99724.19
2024-01-05T23:58:39.082Z,99746.34
